sensor_id;sensor_type;location;lat;lon;timestamp;temperature;humidity
17659;DHT22;8948;51.534;8.262;2023-01-15T00:04:50;9.50;73.80
17659;DHT22;8948;51.534;8.262;2023-01-15T00:09:50;9.30;72.40
17659;DHT22;8948;51.534;8.262;2023-01-15T00:14:51;9.20;73.50
17659;DHT22;8948;51.534;8.262;2023-01-15T00:19:52;9.10;74.30
17659;DHT22;8948;51.534;8.262;2023-01-15T00:24:52;9.00;75.20
17659;DHT22;8948;51.534;8.262;2023-01-15T00:30:14;8.90;75.30
17659;DHT22;8948;51.534;8.262;2023-01-15T00:35:19;8.50;75.70
17659;DHT22;8948;51.534;8.262;2023-01-15T00:40:20;8.10;77.20
17659;DHT22;8948;51.534;8.262;2023-01-15T00:45:22;8.00;77.20
17659;DHT22;8948;51.534;8.262;2023-01-15T00:50:22;8.00;77.20
17659;DHT22;8948;51.534;8.262;2023-01-15T00:55:23;7.80;76.60
17659;DHT22;8948;51.534;8.262;2023-01-15T01:00:25;7.60;75.80
17659;DHT22;8948;51.534;8.262;2023-01-15T01:05:25;7.40;74.40
17659;DHT22;8948;51.534;8.262;2023-01-15T01:10:26;7.30;74.60
17659;DHT22;8948;51.534;8.262;2023-01-15T01:15:27;7.20;74.80
17659;DHT22;8948;51.534;8.262;2023-01-15T01:20:27;7.00;75.60
17659;DHT22;8948;51.534;8.262;2023-01-15T01:25:28;7.00;76.10
17659;DHT22;8948;51.534;8.262;2023-01-15T01:30:28;7.10;76.00
17659;DHT22;8948;51.534;8.262;2023-01-15T01:35:29;7.00;76.20
17659;DHT22;8948;51.534;8.262;2023-01-15T01:40:29;6.90;75.20
17659;DHT22;8948;51.534;8.262;2023-01-15T01:45:32;6.90;75.60
17659;DHT22;8948;51.534;8.262;2023-01-15T01:50:34;6.70;75.60
17659;DHT22;8948;51.534;8.262;2023-01-15T01:55:36;6.70;76.20
17659;DHT22;8948;51.534;8.262;2023-01-15T02:00:40;6.70;76.30
17659;DHT22;8948;51.534;8.262;2023-01-15T02:05:48;6.70;74.50
17659;DHT22;8948;51.534;8.262;2023-01-15T02:10:54;6.70;74.00
17659;DHT22;8948;51.534;8.262;2023-01-15T02:16:05;6.80;74.10
17659;DHT22;8948;51.534;8.262;2023-01-15T02:21:38;6.80;74.50
17659;DHT22;8948;51.534;8.262;2023-01-15T02:27:06;6.80;73.20
17659;DHT22;8948;51.534;8.262;2023-01-15T02:32:13;6.90;70.60
17659;DHT22;8948;51.534;8.262;2023-01-15T02:37:21;6.80;72.00
17659;DHT22;8948;51.534;8.262;2023-01-15T02:42:24;6.90;72.50
17659;DHT22;8948;51.534;8.262;2023-01-15T02:47:29;6.90;72.30
17659;DHT22;8948;51.534;8.262;2023-01-15T02:52:37;6.90;72.30
17659;DHT22;8948;51.534;8.262;2023-01-15T02:57:40;6.90;71.40
17659;DHT22;8948;51.534;8.262;2023-01-15T03:02:46;6.90;71.30
17659;DHT22;8948;51.534;8.262;2023-01-15T03:07:56;6.90;70.00
17659;DHT22;8948;51.534;8.262;2023-01-15T03:13:02;6.80;69.90
17659;DHT22;8948;51.534;8.262;2023-01-15T03:18:05;6.80;70.30
17659;DHT22;8948;51.534;8.262;2023-01-15T03:23:10;6.70;70.50
17659;DHT22;8948;51.534;8.262;2023-01-15T03:28:13;6.80;70.30
17659;DHT22;8948;51.534;8.262;2023-01-15T03:33:15;6.70;70.60
17659;DHT22;8948;51.534;8.262;2023-01-15T03:38:21;6.70;70.70
17659;DHT22;8948;51.534;8.262;2023-01-15T03:43:30;6.70;71.10
17659;DHT22;8948;51.534;8.262;2023-01-15T03:48:54;6.70;71.00
17659;DHT22;8948;51.534;8.262;2023-01-15T03:53:58;6.70;70.60
17659;DHT22;8948;51.534;8.262;2023-01-15T03:59:17;6.70;71.00
17659;DHT22;8948;51.534;8.262;2023-01-15T04:04:19;6.70;71.00
17659;DHT22;8948;51.534;8.262;2023-01-15T04:09:20;6.70;71.00
17659;DHT22;8948;51.534;8.262;2023-01-15T04:14:20;6.60;70.90
17659;DHT22;8948;51.534;8.262;2023-01-15T04:19:21;6.70;70.60
17659;DHT22;8948;51.534;8.262;2023-01-15T04:24:22;6.70;70.60
17659;DHT22;8948;51.534;8.262;2023-01-15T04:29:22;6.60;71.00
17659;DHT22;8948;51.534;8.262;2023-01-15T04:34:24;6.70;71.40
17659;DHT22;8948;51.534;8.262;2023-01-15T04:39:25;6.60;71.10
17659;DHT22;8948;51.534;8.262;2023-01-15T04:44:26;6.60;70.50
17659;DHT22;8948;51.534;8.262;2023-01-15T04:49:28;6.60;70.90
17659;DHT22;8948;51.534;8.262;2023-01-15T04:54:29;6.60;71.10
17659;DHT22;8948;51.534;8.262;2023-01-15T04:59:30;6.60;71.50
17659;DHT22;8948;51.534;8.262;2023-01-15T05:04:31;6.60;71.30
17659;DHT22;8948;51.534;8.262;2023-01-15T05:09:32;6.70;71.50
17659;DHT22;8948;51.534;8.262;2023-01-15T05:14:33;6.70;72.30
17659;DHT22;8948;51.534;8.262;2023-01-15T05:19:33;6.70;71.40
17659;DHT22;8948;51.534;8.262;2023-01-15T05:24:34;6.70;71.20
17659;DHT22;8948;51.534;8.262;2023-01-15T05:29:35;6.60;70.70
17659;DHT22;8948;51.534;8.262;2023-01-15T05:34:35;6.70;71.00
17659;DHT22;8948;51.534;8.262;2023-01-15T05:39:36;6.60;71.00
17659;DHT22;8948;51.534;8.262;2023-01-15T05:44:37;6.60;70.80
17659;DHT22;8948;51.534;8.262;2023-01-15T05:49:37;6.60;70.70
17659;DHT22;8948;51.534;8.262;2023-01-15T05:54:38;6.60;70.30
17659;DHT22;8948;51.534;8.262;2023-01-15T05:59:38;6.50;70.60
17659;DHT22;8948;51.534;8.262;2023-01-15T06:04:39;6.50;69.90
17659;DHT22;8948;51.534;8.262;2023-01-15T06:09:40;6.50;69.80
17659;DHT22;8948;51.534;8.262;2023-01-15T06:14:40;6.50;69.60
17659;DHT22;8948;51.534;8.262;2023-01-15T06:19:41;6.50;69.30
17659;DHT22;8948;51.534;8.262;2023-01-15T06:24:41;6.50;69.20
17659;DHT22;8948;51.534;8.262;2023-01-15T06:29:42;6.50;69.60
17659;DHT22;8948;51.534;8.262;2023-01-15T06:34:42;6.50;69.50
17659;DHT22;8948;51.534;8.262;2023-01-15T06:39:43;6.50;70.10
17659;DHT22;8948;51.534;8.262;2023-01-15T06:44:44;6.50;70.10
17659;DHT22;8948;51.534;8.262;2023-01-15T06:50:03;6.50;70.50
17659;DHT22;8948;51.534;8.262;2023-01-15T06:55:04;6.50;70.20
17659;DHT22;8948;51.534;8.262;2023-01-15T07:00:10;6.50;70.40
17659;DHT22;8948;51.534;8.262;2023-01-15T07:05:10;6.40;70.40
17659;DHT22;8948;51.534;8.262;2023-01-15T07:10:11;6.40;70.10
17659;DHT22;8948;51.534;8.262;2023-01-15T07:15:12;6.40;70.30
17659;DHT22;8948;51.534;8.262;2023-01-15T07:20:12;6.40;70.20
17659;DHT22;8948;51.534;8.262;2023-01-15T07:25:13;6.40;70.00
17659;DHT22;8948;51.534;8.262;2023-01-15T07:30:14;6.30;70.80
17659;DHT22;8948;51.534;8.262;2023-01-15T07:35:15;6.30;70.60
17659;DHT22;8948;51.534;8.262;2023-01-15T07:40:16;6.30;70.60
17659;DHT22;8948;51.534;8.262;2023-01-15T07:45:17;6.30;70.70
17659;DHT22;8948;51.534;8.262;2023-01-15T07:50:36;6.30;70.50
17659;DHT22;8948;51.534;8.262;2023-01-15T07:55:37;6.30;71.00
17659;DHT22;8948;51.534;8.262;2023-01-15T08:00:37;6.30;70.50
17659;DHT22;8948;51.534;8.262;2023-01-15T08:05:38;6.30;70.50
17659;DHT22;8948;51.534;8.262;2023-01-15T08:10:39;6.20;70.60
17659;DHT22;8948;51.534;8.262;2023-01-15T08:15:59;6.30;70.70
17659;DHT22;8948;51.534;8.262;2023-01-15T08:21:00;6.20;70.70
17659;DHT22;8948;51.534;8.262;2023-01-15T08:26:00;6.20;70.80
17659;DHT22;8948;51.534;8.262;2023-01-15T08:31:01;6.30;70.90
17659;DHT22;8948;51.534;8.262;2023-01-15T08:36:01;6.30;70.10
17659;DHT22;8948;51.534;8.262;2023-01-15T08:41:02;6.20;70.50
17659;DHT22;8948;51.534;8.262;2023-01-15T08:46:04;6.20;70.40
17659;DHT22;8948;51.534;8.262;2023-01-15T08:51:07;6.30;70.30
17659;DHT22;8948;51.534;8.262;2023-01-15T08:56:15;6.30;69.70
17659;DHT22;8948;51.534;8.262;2023-01-15T09:01:15;6.40;69.20
17659;DHT22;8948;51.534;8.262;2023-01-15T09:06:16;6.50;69.50
17659;DHT22;8948;51.534;8.262;2023-01-15T09:11:17;6.50;68.70
17659;DHT22;8948;51.534;8.262;2023-01-15T09:16:17;6.60;68.40
17659;DHT22;8948;51.534;8.262;2023-01-15T09:21:18;6.60;69.00
17659;DHT22;8948;51.534;8.262;2023-01-15T09:26:38;6.60;69.00
17659;DHT22;8948;51.534;8.262;2023-01-15T09:31:39;6.70;68.70
17659;DHT22;8948;51.534;8.262;2023-01-15T09:36:39;6.70;69.20
17659;DHT22;8948;51.534;8.262;2023-01-15T09:52:29;6.50;67.90
17659;DHT22;8948;51.534;8.262;2023-01-15T09:57:32;6.60;68.30
17659;DHT22;8948;51.534;8.262;2023-01-15T10:02:45;6.50;68.60
17659;DHT22;8948;51.534;8.262;2023-01-15T10:08:15;6.60;67.80
17659;DHT22;8948;51.534;8.262;2023-01-15T10:13:47;6.50;67.70
17659;DHT22;8948;51.534;8.262;2023-01-15T10:18:48;6.40;66.90
17659;DHT22;8948;51.534;8.262;2023-01-15T10:24:06;6.30;66.30
17659;DHT22;8948;51.534;8.262;2023-01-15T10:29:32;6.80;64.20
17659;DHT22;8948;51.534;8.262;2023-01-15T10:45:19;6.70;61.10
17659;DHT22;8948;51.534;8.262;2023-01-15T10:50:24;6.80;61.70
17659;DHT22;8948;51.534;8.262;2023-01-15T10:55:36;7.30;60.60
17659;DHT22;8948;51.534;8.262;2023-01-15T11:00:39;7.40;60.60
17659;DHT22;8948;51.534;8.262;2023-01-15T11:05:40;7.30;59.80
17659;DHT22;8948;51.534;8.262;2023-01-15T11:10:40;7.20;60.20
17659;DHT22;8948;51.534;8.262;2023-01-15T11:15:46;7.20;59.40
17659;DHT22;8948;51.534;8.262;2023-01-15T11:21:11;7.20;61.00
17659;DHT22;8948;51.534;8.262;2023-01-15T11:26:24;7.20;61.70
17659;DHT22;8948;51.534;8.262;2023-01-15T11:31:35;7.50;61.60
17659;DHT22;8948;51.534;8.262;2023-01-15T11:36:36;7.40;60.60
17659;DHT22;8948;51.534;8.262;2023-01-15T11:41:37;7.40;60.40
17659;DHT22;8948;51.534;8.262;2023-01-15T11:46:56;7.50;60.90
17659;DHT22;8948;51.534;8.262;2023-01-15T11:52:19;7.60;60.50
17659;DHT22;8948;51.534;8.262;2023-01-15T11:57:31;7.70;60.00
17659;DHT22;8948;51.534;8.262;2023-01-15T12:02:37;7.70;60.10
17659;DHT22;8948;51.534;8.262;2023-01-15T12:07:48;7.70;60.70
17659;DHT22;8948;51.534;8.262;2023-01-15T12:18:24;7.50;60.30
17659;DHT22;8948;51.534;8.262;2023-01-15T12:23:50;7.40;59.20
17659;DHT22;8948;51.534;8.262;2023-01-15T12:29:01;7.40;58.60
17659;DHT22;8948;51.534;8.262;2023-01-15T12:34:22;7.40;59.80
17659;DHT22;8948;51.534;8.262;2023-01-15T12:39:39;7.30;59.80
17659;DHT22;8948;51.534;8.262;2023-01-15T12:44:49;7.40;61.40
17659;DHT22;8948;51.534;8.262;2023-01-15T12:50:38;7.40;59.80
17659;DHT22;8948;51.534;8.262;2023-01-15T12:56:03;7.40;60.80
17659;DHT22;8948;51.534;8.262;2023-01-15T13:06:22;7.30;60.30
17659;DHT22;8948;51.534;8.262;2023-01-15T13:11:26;7.30;60.70
17659;DHT22;8948;51.534;8.262;2023-01-15T13:16:55;7.50;59.70
17659;DHT22;8948;51.534;8.262;2023-01-15T13:22:02;7.50;58.10
17659;DHT22;8948;51.534;8.262;2023-01-15T13:27:42;7.30;58.30
17659;DHT22;8948;51.534;8.262;2023-01-15T13:32:49;7.30;58.50
17659;DHT22;8948;51.534;8.262;2023-01-15T13:37:51;7.30;60.80
17659;DHT22;8948;51.534;8.262;2023-01-15T13:42:54;7.40;60.40
17659;DHT22;8948;51.534;8.262;2023-01-15T13:48:12;7.30;59.90
17659;DHT22;8948;51.534;8.262;2023-01-15T13:53:39;7.30;58.90
17659;DHT22;8948;51.534;8.262;2023-01-15T14:04:35;7.80;58.60
17659;DHT22;8948;51.534;8.262;2023-01-15T14:09:36;7.80;57.70
17659;DHT22;8948;51.534;8.262;2023-01-15T14:31:05;7.30;59.40
17659;DHT22;8948;51.534;8.262;2023-01-15T14:36:18;7.20;59.50
17659;DHT22;8948;51.534;8.262;2023-01-15T14:41:31;7.10;59.70
17659;DHT22;8948;51.534;8.262;2023-01-15T14:46:33;7.20;60.00
17659;DHT22;8948;51.534;8.262;2023-01-15T14:51:47;7.20;59.90
17659;DHT22;8948;51.534;8.262;2023-01-15T14:56:56;7.10;59.50
17659;DHT22;8948;51.534;8.262;2023-01-15T15:02:00;7.10;60.10
17659;DHT22;8948;51.534;8.262;2023-01-15T15:07:04;7.20;60.20
17659;DHT22;8948;51.534;8.262;2023-01-15T15:12:40;7.10;59.80
17659;DHT22;8948;51.534;8.262;2023-01-15T15:17:58;7.10;59.70
17659;DHT22;8948;51.534;8.262;2023-01-15T15:23:14;7.00;60.20
17659;DHT22;8948;51.534;8.262;2023-01-15T15:28:15;6.90;60.00
17659;DHT22;8948;51.534;8.262;2023-01-15T15:33:18;6.90;60.70
17659;DHT22;8948;51.534;8.262;2023-01-15T15:38:21;6.90;60.40
17659;DHT22;8948;51.534;8.262;2023-01-15T15:43:31;6.90;60.90
17659;DHT22;8948;51.534;8.262;2023-01-15T15:49:09;6.90;60.40
17659;DHT22;8948;51.534;8.262;2023-01-15T15:59:48;7.00;60.10
17659;DHT22;8948;51.534;8.262;2023-01-15T16:04:53;7.00;60.00
17659;DHT22;8948;51.534;8.262;2023-01-15T16:10:13;7.00;60.60
17659;DHT22;8948;51.534;8.262;2023-01-15T16:15:17;7.00;61.00
17659;DHT22;8948;51.534;8.262;2023-01-15T16:20:19;6.90;61.30
17659;DHT22;8948;51.534;8.262;2023-01-15T16:30:31;6.90;60.60
17659;DHT22;8948;51.534;8.262;2023-01-15T16:35:33;6.80;60.90
17659;DHT22;8948;51.534;8.262;2023-01-15T16:40:38;6.80;60.20
17659;DHT22;8948;51.534;8.262;2023-01-15T16:45:56;6.90;59.90
17659;DHT22;8948;51.534;8.262;2023-01-15T16:50:57;6.80;60.60
17659;DHT22;8948;51.534;8.262;2023-01-15T16:55:58;6.80;61.20
17659;DHT22;8948;51.534;8.262;2023-01-15T17:01:21;6.80;61.40
17659;DHT22;8948;51.534;8.262;2023-01-15T17:06:24;6.80;61.70
17659;DHT22;8948;51.534;8.262;2023-01-15T17:11:27;6.80;61.70
17659;DHT22;8948;51.534;8.262;2023-01-15T17:16:29;6.80;61.20
17659;DHT22;8948;51.534;8.262;2023-01-15T17:21:30;6.80;61.40
17659;DHT22;8948;51.534;8.262;2023-01-15T17:26:31;6.80;61.10
17659;DHT22;8948;51.534;8.262;2023-01-15T17:31:33;6.70;61.60
17659;DHT22;8948;51.534;8.262;2023-01-15T17:36:33;6.70;62.00
17659;DHT22;8948;51.534;8.262;2023-01-15T17:41:34;6.80;61.60
17659;DHT22;8948;51.534;8.262;2023-01-15T17:46:35;6.80;61.90
17659;DHT22;8948;51.534;8.262;2023-01-15T17:51:35;6.80;62.60
17659;DHT22;8948;51.534;8.262;2023-01-15T17:56:36;6.80;62.90
17659;DHT22;8948;51.534;8.262;2023-01-15T18:01:55;6.70;63.00
17659;DHT22;8948;51.534;8.262;2023-01-15T18:07:17;6.70;62.40
17659;DHT22;8948;51.534;8.262;2023-01-15T18:12:18;6.70;62.70
17659;DHT22;8948;51.534;8.262;2023-01-15T18:17:18;6.60;62.80
17659;DHT22;8948;51.534;8.262;2023-01-15T18:22:19;6.60;62.70
17659;DHT22;8948;51.534;8.262;2023-01-15T18:27:20;6.50;63.20
17659;DHT22;8948;51.534;8.262;2023-01-15T18:32:20;6.50;63.30
17659;DHT22;8948;51.534;8.262;2023-01-15T18:37:21;6.40;63.30
17659;DHT22;8948;51.534;8.262;2023-01-15T18:42:21;6.40;63.40
17659;DHT22;8948;51.534;8.262;2023-01-15T18:47:41;6.40;63.50
17659;DHT22;8948;51.534;8.262;2023-01-15T18:52:41;6.40;63.40
17659;DHT22;8948;51.534;8.262;2023-01-15T18:57:49;6.40;63.10
17659;DHT22;8948;51.534;8.262;2023-01-15T19:02:50;6.40;63.80
17659;DHT22;8948;51.534;8.262;2023-01-15T19:07:51;6.30;64.80
17659;DHT22;8948;51.534;8.262;2023-01-15T19:12:51;6.20;66.00
17659;DHT22;8948;51.534;8.262;2023-01-15T19:17:52;6.10;66.00
17659;DHT22;8948;51.534;8.262;2023-01-15T19:23:11;6.10;66.50
17659;DHT22;8948;51.534;8.262;2023-01-15T19:28:14;6.10;66.90
17659;DHT22;8948;51.534;8.262;2023-01-15T19:33:15;6.10;67.00
17659;DHT22;8948;51.534;8.262;2023-01-15T19:38:15;6.10;67.10
17659;DHT22;8948;51.534;8.262;2023-01-15T19:43:16;6.10;67.30
17659;DHT22;8948;51.534;8.262;2023-01-15T19:48:35;6.10;67.20
17659;DHT22;8948;51.534;8.262;2023-01-15T19:53:54;6.00;67.90
17659;DHT22;8948;51.534;8.262;2023-01-15T19:58:55;5.90;68.40
17659;DHT22;8948;51.534;8.262;2023-01-15T20:03:55;5.80;68.50
17659;DHT22;8948;51.534;8.262;2023-01-15T20:08:56;5.90;68.40
17659;DHT22;8948;51.534;8.262;2023-01-15T20:13:57;5.90;68.70
17659;DHT22;8948;51.534;8.262;2023-01-15T20:18:57;5.90;68.50
17659;DHT22;8948;51.534;8.262;2023-01-15T20:23:58;5.90;68.40
17659;DHT22;8948;51.534;8.262;2023-01-15T20:28:58;5.90;68.40
17659;DHT22;8948;51.534;8.262;2023-01-15T20:33:59;5.90;68.20
17659;DHT22;8948;51.534;8.262;2023-01-15T20:39:01;5.90;68.30
17659;DHT22;8948;51.534;8.262;2023-01-15T20:44:02;6.00;67.70
17659;DHT22;8948;51.534;8.262;2023-01-15T20:49:21;5.90;67.90
17659;DHT22;8948;51.534;8.262;2023-01-15T20:54:26;5.80;67.80
17659;DHT22;8948;51.534;8.262;2023-01-15T20:59:27;5.80;67.30
17659;DHT22;8948;51.534;8.262;2023-01-15T21:04:27;5.70;67.50
17659;DHT22;8948;51.534;8.262;2023-01-15T21:09:29;5.70;67.40
17659;DHT22;8948;51.534;8.262;2023-01-15T21:14:30;5.70;68.20
17659;DHT22;8948;51.534;8.262;2023-01-15T21:19:30;5.70;67.20
17659;DHT22;8948;51.534;8.262;2023-01-15T21:24:32;5.70;67.70
17659;DHT22;8948;51.534;8.262;2023-01-15T21:29:33;5.80;67.20
17659;DHT22;8948;51.534;8.262;2023-01-15T21:34:33;5.80;67.40
17659;DHT22;8948;51.534;8.262;2023-01-15T21:39:34;5.80;66.80
17659;DHT22;8948;51.534;8.262;2023-01-15T21:44:34;5.80;67.10
17659;DHT22;8948;51.534;8.262;2023-01-15T21:49:42;5.90;66.70
17659;DHT22;8948;51.534;8.262;2023-01-15T21:54:43;5.90;66.70
17659;DHT22;8948;51.534;8.262;2023-01-15T21:59:44;5.90;66.80
17659;DHT22;8948;51.534;8.262;2023-01-15T22:04:45;5.90;66.50
17659;DHT22;8948;51.534;8.262;2023-01-15T22:09:46;5.90;66.30
17659;DHT22;8948;51.534;8.262;2023-01-15T22:14:46;5.90;66.20
17659;DHT22;8948;51.534;8.262;2023-01-15T22:19:48;5.90;66.10
17659;DHT22;8948;51.534;8.262;2023-01-15T22:24:50;5.90;65.90
17659;DHT22;8948;51.534;8.262;2023-01-15T22:29:51;5.80;65.80
17659;DHT22;8948;51.534;8.262;2023-01-15T22:34:51;5.70;66.20
17659;DHT22;8948;51.534;8.262;2023-01-15T22:39:52;5.70;65.90
17659;DHT22;8948;51.534;8.262;2023-01-15T22:44:54;5.60;66.40
17659;DHT22;8948;51.534;8.262;2023-01-15T22:49:55;5.60;66.40
17659;DHT22;8948;51.534;8.262;2023-01-15T22:54:55;5.60;66.60
17659;DHT22;8948;51.534;8.262;2023-01-15T22:59:56;5.50;67.30
17659;DHT22;8948;51.534;8.262;2023-01-15T23:04:57;5.50;68.30
17659;DHT22;8948;51.534;8.262;2023-01-15T23:09:57;5.60;68.30
17659;DHT22;8948;51.534;8.262;2023-01-15T23:14:58;5.70;69.00
17659;DHT22;8948;51.534;8.262;2023-01-15T23:19:58;5.60;70.40
17659;DHT22;8948;51.534;8.262;2023-01-15T23:24:59;5.50;71.10
17659;DHT22;8948;51.534;8.262;2023-01-15T23:29:59;5.50;70.80
17659;DHT22;8948;51.534;8.262;2023-01-15T23:35:00;5.40;71.80
17659;DHT22;8948;51.534;8.262;2023-01-15T23:40:01;5.40;72.30
17659;DHT22;8948;51.534;8.262;2023-01-15T23:45:01;5.40;72.20
17659;DHT22;8948;51.534;8.262;2023-01-15T23:50:21;5.30;72.00
17659;DHT22;8948;51.534;8.262;2023-01-15T23:55:21;5.30;71.80
